createdAt,value
2019-01-27T00:00:53.532Z,6.93
2019-01-27T00:01:53.516Z,6.81
2019-01-27T00:02:53.501Z,6.85
2019-01-27T00:03:53.487Z,6.84
2019-01-27T00:04:53.473Z,6.70
2019-01-27T00:05:53.457Z,6.77
2019-01-27T00:06:53.443Z,6.70
2019-01-27T00:07:53.428Z,6.64
2019-01-27T00:08:53.417Z,6.64
2019-01-27T00:09:53.398Z,6.67
2019-01-27T00:10:53.383Z,6.74
2019-01-27T00:11:53.369Z,6.72
2019-01-27T00:12:53.355Z,6.67
2019-01-27T00:13:53.339Z,6.75
2019-01-27T00:14:53.326Z,6.67
2019-01-27T00:15:53.309Z,6.59
2019-01-27T00:16:53.294Z,6.57
2019-01-27T00:17:53.278Z,6.62
2019-01-27T00:18:53.264Z,6.69
2019-01-27T00:19:53.249Z,6.64
2019-01-27T00:20:53.234Z,6.63
2019-01-27T00:21:53.220Z,6.57
2019-01-27T00:22:53.204Z,6.62
2019-01-27T00:23:53.190Z,6.67
2019-01-27T00:24:53.175Z,6.63
2019-01-27T00:25:53.160Z,6.56
2019-01-27T00:26:53.148Z,6.62
2019-01-27T00:27:53.135Z,6.64
2019-01-27T00:28:53.116Z,6.56
2019-01-27T00:29:53.100Z,6.57
2019-01-27T00:30:53.086Z,6.62
2019-01-27T00:31:53.071Z,6.69
2019-01-27T00:32:53.056Z,6.67
2019-01-27T00:33:53.042Z,6.70
2019-01-27T00:34:53.026Z,6.69
2019-01-27T00:35:53.012Z,6.72
2019-01-27T00:36:52.998Z,6.67
2019-01-27T00:37:52.982Z,6.70
2019-01-27T00:38:52.968Z,6.70
2019-01-27T00:39:52.955Z,6.66
2019-01-27T00:40:52.938Z,6.70
2019-01-27T00:41:52.923Z,6.69
2019-01-27T00:42:52.908Z,6.72
2019-01-27T00:43:52.895Z,6.67
2019-01-27T00:44:52.879Z,6.72
2019-01-27T00:45:52.864Z,6.74
2019-01-27T00:46:52.850Z,6.69
2019-01-27T00:47:52.834Z,6.72
2019-01-27T00:48:52.820Z,6.75
2019-01-27T00:49:52.807Z,6.67
2019-01-27T00:50:52.790Z,6.62
2019-01-27T00:51:52.775Z,6.62
2019-01-27T00:52:52.762Z,6.69
2019-01-27T00:53:52.744Z,6.60
2019-01-27T00:54:52.731Z,6.66
2019-01-27T00:55:52.715Z,6.66
2019-01-27T00:56:52.703Z,6.52
2019-01-27T00:57:52.685Z,6.62
2019-01-27T00:58:52.672Z,6.46
2019-01-27T00:59:52.656Z,6.52
2019-01-27T01:00:52.640Z,6.49
2019-01-27T01:01:52.625Z,6.54
2019-01-27T01:02:52.610Z,6.54
2019-01-27T01:03:52.595Z,6.57
2019-01-27T01:04:52.581Z,6.54
2019-01-27T01:05:52.565Z,6.51
2019-01-27T01:06:52.550Z,6.54
2019-01-27T01:07:52.537Z,6.59
2019-01-27T01:08:52.519Z,6.52
2019-01-27T01:09:52.503Z,6.54
2019-01-27T01:10:52.488Z,6.54
2019-01-27T01:11:53.468Z,6.51
2019-01-27T01:12:52.460Z,6.52
2019-01-27T01:13:52.444Z,6.54
2019-01-27T01:14:52.428Z,6.54
2019-01-27T01:15:52.414Z,6.49
2019-01-27T01:16:52.399Z,6.56
2019-01-27T01:17:52.384Z,6.54
2019-01-27T01:18:52.368Z,6.46
2019-01-27T01:19:52.360Z,6.56
2019-01-27T01:20:52.338Z,6.56
2019-01-27T01:21:52.325Z,6.56
2019-01-27T01:22:52.308Z,6.54
2019-01-27T01:23:52.303Z,6.48
2019-01-27T01:24:52.279Z,6.49
2019-01-27T01:25:52.263Z,6.59
2019-01-27T01:26:52.248Z,6.49
2019-01-27T01:27:52.234Z,6.51
2019-01-27T01:28:52.219Z,6.49
2019-01-27T01:29:52.204Z,6.59
2019-01-27T01:30:52.190Z,6.60
2019-01-27T01:31:52.174Z,6.57
2019-01-27T01:32:52.161Z,6.63
2019-01-27T01:33:52.144Z,6.66
2019-01-27T01:34:52.130Z,6.62
2019-01-27T01:35:52.115Z,6.75
2019-01-27T01:36:52.101Z,6.70
2019-01-27T01:37:52.086Z,6.69
2019-01-27T01:38:52.070Z,6.70
2019-01-27T01:39:52.056Z,6.64
2019-01-27T01:40:52.043Z,6.74
2019-01-27T01:41:52.027Z,6.66
2019-01-27T01:42:52.011Z,6.66
2019-01-27T01:43:51.997Z,6.72
2019-01-27T01:44:51.982Z,6.75
2019-01-27T01:45:51.968Z,6.74
2019-01-27T01:46:51.954Z,6.69
2019-01-27T01:47:51.938Z,6.72
2019-01-27T01:48:51.925Z,6.75
2019-01-27T01:49:51.909Z,6.72
2019-01-27T01:50:51.894Z,6.70
2019-01-27T01:51:51.881Z,6.66
2019-01-27T01:52:51.866Z,6.70
2019-01-27T01:53:51.850Z,6.82
2019-01-27T01:54:51.836Z,6.78
2019-01-27T01:55:51.822Z,6.93
2019-01-27T01:56:51.807Z,6.84
2019-01-27T01:57:51.792Z,6.84
2019-01-27T01:58:51.779Z,6.89
2019-01-27T01:59:51.765Z,6.81
2019-01-27T02:00:51.750Z,6.85
2019-01-27T02:01:51.738Z,6.89
2019-01-27T02:02:51.720Z,6.84
2019-01-27T02:03:51.706Z,6.84
2019-01-27T02:04:51.694Z,6.92
2019-01-27T02:05:51.677Z,6.88
2019-01-27T02:06:51.663Z,6.88
2019-01-27T02:07:51.648Z,6.79
2019-01-27T02:08:51.634Z,6.81
2019-01-27T02:09:51.618Z,6.72
2019-01-27T02:10:51.604Z,6.74
2019-01-27T02:11:51.592Z,6.79
2019-01-27T02:12:51.577Z,6.77
2019-01-27T02:13:51.562Z,6.69
2019-01-27T02:14:51.547Z,6.78
2019-01-27T02:15:51.533Z,6.74
2019-01-27T02:16:51.522Z,6.77
2019-01-27T02:17:51.503Z,6.87
2019-01-27T02:18:51.489Z,6.81
2019-01-27T02:19:51.474Z,6.74
2019-01-27T02:20:51.460Z,6.81
2019-01-27T02:21:51.446Z,6.79
2019-01-27T02:22:51.431Z,6.79
2019-01-27T02:23:51.417Z,6.82
2019-01-27T02:24:51.402Z,6.79
2019-01-27T02:25:51.388Z,6.84
2019-01-27T02:26:51.373Z,6.78
2019-01-27T02:27:51.359Z,6.75
2019-01-27T02:28:51.347Z,6.82
2019-01-27T02:29:51.329Z,6.92
2019-01-27T02:30:51.315Z,6.87
2019-01-27T02:31:51.301Z,6.84
2019-01-27T02:32:51.287Z,6.85
2019-01-27T02:33:51.272Z,6.92
2019-01-27T02:34:51.260Z,6.85
2019-01-27T02:35:51.244Z,6.84
2019-01-27T02:36:51.229Z,6.87
2019-01-27T02:37:51.215Z,6.92
2019-01-27T02:38:51.200Z,6.88
2019-01-27T02:39:51.188Z,7.00
2019-01-27T02:40:51.172Z,7.02
2019-01-27T02:41:51.157Z,6.99
2019-01-27T02:42:51.143Z,7.02
2019-01-27T02:43:51.130Z,6.99
2019-01-27T02:44:51.114Z,6.99
2019-01-27T02:45:51.101Z,7.00
2019-01-27T02:46:51.087Z,6.87
2019-01-27T02:47:51.073Z,7.02
2019-01-27T02:48:51.058Z,7.05
2019-01-27T02:49:51.043Z,6.99
2019-01-27T02:50:51.029Z,6.99
2019-01-27T02:51:51.015Z,6.96
2019-01-27T02:52:51.002Z,7.00
2019-01-27T02:53:50.987Z,6.99
2019-01-27T02:54:50.972Z,6.99
2019-01-27T02:55:50.966Z,7.06
2019-01-27T02:56:50.945Z,7.20
2019-01-27T02:57:50.930Z,7.24
2019-01-27T02:58:50.917Z,7.20
2019-01-27T02:59:50.903Z,7.21
2019-01-27T03:00:50.888Z,7.20
2019-01-27T03:01:50.873Z,7.17
2019-01-27T03:02:50.859Z,7.21
2019-01-27T03:03:50.846Z,7.21
2019-01-27T03:04:50.831Z,7.17
2019-01-27T03:05:50.817Z,7.13
2019-01-27T03:06:50.805Z,7.21
2019-01-27T03:07:50.789Z,7.20
2019-01-27T03:08:50.774Z,7.18
2019-01-27T03:09:50.759Z,7.20
2019-01-27T03:10:50.747Z,7.18
2019-01-27T03:11:50.760Z,7.18
2019-01-27T03:12:50.720Z,7.18
2019-01-27T03:13:50.703Z,7.18
2019-01-27T03:14:50.694Z,7.21
2019-01-27T03:15:50.676Z,7.21
2019-01-27T03:16:50.668Z,7.18
2019-01-27T03:17:50.649Z,7.18
2019-01-27T03:18:50.634Z,7.10
2019-01-27T03:19:50.619Z,7.25
2019-01-27T03:20:50.605Z,7.20
2019-01-27T03:21:50.594Z,7.11
2019-01-27T03:22:50.576Z,7.03
2019-01-27T03:23:50.564Z,6.96
2019-01-27T03:24:50.552Z,6.93
2019-01-27T03:25:50.535Z,6.92
2019-01-27T03:26:50.521Z,6.78
2019-01-27T03:27:50.507Z,6.75
2019-01-27T03:28:50.492Z,6.72
2019-01-27T03:29:50.479Z,6.70
2019-01-27T03:30:50.485Z,6.62
2019-01-27T03:31:50.577Z,6.59
2019-01-27T03:32:50.434Z,6.60
2019-01-27T03:33:50.418Z,6.59
2019-01-27T03:34:50.403Z,6.62
2019-01-27T03:35:50.389Z,6.46
2019-01-27T03:36:50.374Z,6.57
2019-01-27T03:37:50.358Z,6.56
2019-01-27T03:38:50.344Z,6.51
2019-01-27T03:39:50.329Z,6.46
2019-01-27T03:40:50.316Z,6.46
2019-01-27T03:41:50.301Z,6.49
2019-01-27T03:42:50.284Z,6.45
2019-01-27T03:43:50.272Z,6.42
2019-01-27T03:44:50.256Z,6.45
2019-01-27T03:45:50.240Z,6.44
2019-01-27T03:46:50.225Z,6.48
2019-01-27T03:47:50.210Z,6.46
2019-01-27T03:48:50.197Z,6.51
2019-01-27T03:49:50.186Z,6.42
2019-01-27T03:50:50.165Z,6.46
2019-01-27T03:51:50.151Z,6.41
2019-01-27T03:52:50.136Z,6.41
2019-01-27T03:53:50.121Z,6.39
2019-01-27T03:54:50.106Z,6.44
2019-01-27T03:55:50.091Z,6.41
2019-01-27T03:56:50.078Z,6.42
2019-01-27T03:57:50.069Z,6.39
2019-01-27T03:58:50.047Z,6.44
2019-01-27T03:59:50.032Z,6.45
2019-01-27T04:00:50.030Z,6.39
2019-01-27T04:01:50.004Z,6.38
2019-01-27T04:02:50.014Z,6.38
2019-01-27T04:03:49.972Z,6.35
2019-01-27T04:04:49.957Z,6.28
2019-01-27T04:05:49.942Z,6.35
2019-01-27T04:06:49.927Z,6.33
2019-01-27T04:07:49.911Z,6.22
2019-01-27T04:08:49.898Z,6.27
2019-01-27T04:09:49.880Z,6.26
2019-01-27T04:10:49.865Z,6.19
2019-01-27T04:11:49.853Z,6.20
2019-01-27T04:12:49.836Z,6.12
2019-01-27T04:13:49.819Z,6.12
2019-01-27T04:14:49.806Z,6.11
2019-01-27T04:15:49.788Z,6.17
2019-01-27T04:16:49.781Z,6.08
2019-01-27T04:17:49.757Z,6.14
2019-01-27T04:18:49.745Z,6.04
2019-01-27T04:19:49.726Z,6.16
2019-01-27T04:20:49.716Z,6.08
2019-01-27T04:21:49.702Z,6.02
2019-01-27T04:22:49.680Z,5.99
2019-01-27T04:23:49.669Z,6.04
2019-01-27T04:24:49.650Z,6.02
2019-01-27T04:25:49.634Z,6.02
2019-01-27T04:26:49.620Z,6.02
2019-01-27T04:27:49.606Z,6.02
2019-01-27T04:28:49.589Z,6.11
2019-01-27T04:29:49.573Z,6.08
2019-01-27T04:30:49.558Z,6.09
2019-01-27T04:31:49.542Z,6.04
2019-01-27T04:32:49.528Z,6.02
2019-01-27T04:33:49.511Z,5.97
2019-01-27T04:34:49.497Z,6.02
2019-01-27T04:35:49.482Z,6.04
2019-01-27T04:36:49.466Z,6.08
2019-01-27T04:37:49.450Z,6.12
2019-01-27T04:38:49.435Z,6.11
2019-01-27T04:39:49.420Z,6.16
2019-01-27T04:40:49.406Z,6.17
2019-01-27T04:41:49.389Z,6.12
2019-01-27T04:42:49.374Z,6.12
2019-01-27T04:43:49.359Z,6.14
2019-01-27T04:44:49.351Z,6.16
2019-01-27T04:45:49.342Z,6.20
2019-01-27T04:46:49.317Z,6.17
2019-01-27T04:47:49.306Z,6.19
2019-01-27T04:48:49.285Z,6.28
2019-01-27T04:49:49.274Z,6.22
2019-01-27T04:50:49.254Z,6.30
2019-01-27T04:51:49.240Z,6.28
2019-01-27T04:52:49.226Z,6.31
2019-01-27T04:53:49.208Z,6.30
2019-01-27T04:54:49.194Z,6.38
2019-01-27T04:55:49.179Z,6.26
2019-01-27T04:56:49.164Z,6.28
2019-01-27T04:57:49.150Z,6.26
2019-01-27T04:58:49.134Z,6.39
2019-01-27T04:59:49.119Z,6.39
2019-01-27T05:00:49.105Z,6.31
2019-01-27T05:01:49.099Z,6.44
2019-01-27T05:02:49.076Z,6.38
2019-01-27T05:03:49.059Z,6.38
2019-01-27T05:04:49.045Z,6.42
2019-01-27T05:05:49.032Z,6.41
2019-01-27T05:06:49.015Z,6.39
2019-01-27T05:07:49.001Z,6.44
2019-01-27T05:08:48.986Z,6.42
2019-01-27T05:09:48.970Z,6.49
2019-01-27T05:10:48.956Z,6.45
2019-01-27T05:11:48.946Z,6.49
2019-01-27T05:12:48.930Z,6.51
2019-01-27T05:13:48.914Z,6.59
2019-01-27T05:14:48.897Z,6.59
2019-01-27T05:15:48.883Z,6.63
2019-01-27T05:16:48.868Z,6.51
2019-01-27T05:17:48.853Z,6.48
2019-01-27T05:18:48.838Z,6.56
2019-01-27T05:19:48.824Z,6.51
2019-01-27T05:20:48.811Z,6.51
2019-01-27T05:21:48.795Z,6.49
2019-01-27T05:22:48.779Z,6.63
2019-01-27T05:23:48.765Z,6.51
2019-01-27T05:24:48.753Z,6.44
2019-01-27T05:25:48.734Z,6.56
2019-01-27T05:26:48.720Z,6.54
2019-01-27T05:27:48.707Z,6.54
2019-01-27T05:28:48.690Z,6.42
2019-01-27T05:29:48.675Z,6.46
2019-01-27T05:30:48.660Z,6.39
2019-01-27T05:31:48.646Z,6.41
2019-01-27T05:32:48.672Z,6.41
2019-01-27T05:33:48.615Z,6.41
2019-01-27T05:34:48.599Z,6.36
2019-01-27T05:35:48.583Z,6.33
2019-01-27T05:36:48.569Z,6.33
2019-01-27T05:37:48.553Z,6.33
2019-01-27T05:38:48.539Z,6.28
2019-01-27T05:39:48.523Z,6.28
2019-01-27T05:40:48.508Z,6.24
2019-01-27T05:41:48.492Z,6.22
2019-01-27T05:42:48.478Z,6.24
2019-01-27T05:43:48.462Z,6.17
2019-01-27T05:44:48.446Z,6.17
2019-01-27T05:45:48.430Z,6.16
2019-01-27T05:46:48.416Z,6.14
2019-01-27T05:47:48.409Z,6.14
2019-01-27T05:48:48.426Z,6.05
2019-01-27T05:49:48.371Z,5.94
2019-01-27T05:50:48.355Z,5.93
2019-01-27T05:51:48.344Z,5.98
2019-01-27T05:52:48.335Z,5.98
2019-01-27T05:53:48.310Z,5.94
2019-01-27T05:54:48.296Z,5.94
2019-01-27T05:55:48.279Z,5.93
2019-01-27T05:56:48.263Z,5.86
2019-01-27T05:57:48.251Z,5.83
2019-01-27T05:58:48.235Z,5.84
2019-01-27T05:59:48.216Z,5.82
2019-01-27T06:00:48.201Z,5.82
2019-01-27T06:01:48.186Z,5.79
2019-01-27T06:02:48.172Z,5.89
2019-01-27T06:03:48.154Z,5.80
2019-01-27T06:04:48.139Z,5.76
2019-01-27T06:05:48.131Z,5.76
2019-01-27T06:06:48.108Z,5.71
2019-01-27T06:07:48.097Z,5.76
2019-01-27T06:08:48.078Z,5.59
2019-01-27T06:09:48.064Z,5.71
2019-01-27T06:10:48.046Z,5.66
2019-01-27T06:11:48.031Z,5.68
2019-01-27T06:12:48.015Z,5.65
2019-01-27T06:13:48.001Z,5.65
2019-01-27T06:14:47.985Z,5.65
2019-01-27T06:15:47.968Z,5.66
2019-01-27T06:16:47.959Z,5.62
2019-01-27T06:17:47.941Z,5.71
2019-01-27T06:18:47.923Z,5.65
2019-01-27T06:19:47.908Z,5.68
2019-01-27T06:20:47.892Z,5.72
2019-01-27T06:21:47.875Z,5.66
2019-01-27T06:22:47.860Z,5.66
2019-01-27T06:23:47.845Z,5.66
2019-01-27T06:24:47.830Z,5.69
2019-01-27T06:25:47.817Z,5.68
2019-01-27T06:26:47.802Z,5.66
2019-01-27T06:27:47.786Z,5.64
2019-01-27T06:28:47.767Z,5.68
2019-01-27T06:29:47.756Z,5.71
2019-01-27T06:30:47.735Z,5.72
2019-01-27T06:31:47.721Z,5.72
2019-01-27T06:32:47.707Z,5.75
2019-01-27T06:33:47.693Z,5.76
2019-01-27T06:34:47.674Z,5.76
2019-01-27T06:35:47.659Z,5.75
2019-01-27T06:36:47.644Z,5.86
2019-01-27T06:37:47.628Z,5.83
2019-01-27T06:38:47.613Z,5.86
2019-01-27T06:39:47.597Z,5.84
2019-01-27T06:40:47.588Z,5.82
2019-01-27T06:41:47.566Z,5.84
2019-01-27T06:42:47.552Z,5.94
2019-01-27T06:43:47.536Z,5.97
2019-01-27T06:44:47.522Z,6.01
2019-01-27T06:45:47.505Z,5.99
2019-01-27T06:46:47.490Z,5.90
2019-01-27T06:47:47.476Z,6.04
2019-01-27T06:48:47.460Z,6.07
2019-01-27T06:49:47.445Z,6.11
2019-01-27T06:50:47.430Z,6.16
2019-01-27T06:51:47.416Z,6.16
2019-01-27T06:52:47.402Z,6.16
2019-01-27T06:53:47.385Z,6.16
2019-01-27T06:54:47.370Z,6.14
2019-01-27T06:55:47.355Z,6.07
2019-01-27T06:56:47.343Z,6.08
2019-01-27T06:57:47.326Z,6.11
2019-01-27T06:58:47.310Z,6.09
2019-01-27T06:59:47.295Z,6.16
2019-01-27T07:00:47.281Z,6.17
2019-01-27T07:01:47.264Z,6.11
2019-01-27T07:02:47.250Z,6.11
2019-01-27T07:03:47.236Z,6.08
2019-01-27T07:04:47.220Z,6.01
2019-01-27T07:05:47.205Z,6.07
2019-01-27T07:06:47.191Z,6.01
2019-01-27T07:07:47.175Z,5.94
2019-01-27T07:08:47.161Z,6.01
2019-01-27T07:09:47.144Z,6.01
2019-01-27T07:10:47.130Z,6.05
2019-01-27T07:11:47.115Z,5.94
2019-01-27T07:12:47.101Z,5.94
2019-01-27T07:13:47.084Z,5.97
2019-01-27T07:14:47.070Z,5.93
2019-01-27T07:15:47.055Z,6.01
2019-01-27T07:16:47.043Z,5.98
2019-01-27T07:17:47.026Z,6.01
2019-01-27T07:18:47.015Z,6.08
2019-01-27T07:19:46.996Z,6.17
2019-01-27T07:20:46.981Z,6.05
2019-01-27T07:21:46.964Z,6.08
2019-01-27T07:22:46.949Z,6.09
2019-01-27T07:23:46.935Z,6.12
2019-01-27T07:24:46.920Z,6.12
2019-01-27T07:25:46.904Z,5.98
2019-01-27T07:26:46.892Z,6.07
2019-01-27T07:27:46.875Z,5.98
2019-01-27T07:28:46.860Z,5.98
2019-01-27T07:29:46.892Z,6.04
2019-01-27T07:30:46.830Z,6.09
2019-01-27T07:31:46.815Z,6.11
2019-01-27T07:32:46.807Z,6.05
2019-01-27T07:33:46.788Z,6.14
2019-01-27T07:34:46.777Z,6.14
2019-01-27T07:35:46.757Z,6.12
2019-01-27T07:36:46.741Z,6.08
2019-01-27T07:37:46.729Z,6.11
2019-01-27T07:38:46.711Z,6.17
2019-01-27T07:39:46.697Z,6.17
2019-01-27T07:40:46.683Z,6.19
2019-01-27T07:41:46.667Z,6.14
2019-01-27T07:42:46.653Z,6.16
2019-01-27T07:43:46.639Z,6.19
2019-01-27T07:44:46.625Z,6.24
2019-01-27T07:45:46.609Z,6.26
2019-01-27T07:46:46.595Z,6.22
2019-01-27T07:47:46.581Z,6.28
2019-01-27T07:48:46.567Z,6.24
2019-01-27T07:49:46.551Z,6.27
2019-01-27T07:50:46.539Z,6.35
2019-01-27T07:51:46.524Z,6.33
2019-01-27T07:52:46.513Z,6.39
2019-01-27T07:53:46.494Z,6.39
2019-01-27T07:54:46.480Z,6.41
2019-01-27T07:55:46.492Z,6.39
2019-01-27T07:56:46.455Z,6.41
2019-01-27T07:57:46.439Z,6.42
2019-01-27T07:58:46.423Z,6.42
2019-01-27T07:59:46.410Z,6.41
2019-01-27T08:00:46.396Z,6.48
2019-01-27T08:01:46.381Z,6.49
2019-01-27T08:02:46.367Z,6.48
2019-01-27T08:03:46.353Z,6.51
2019-01-27T08:04:46.340Z,6.59
2019-01-27T08:05:46.325Z,6.56
2019-01-27T08:06:46.311Z,6.56
2019-01-27T08:07:46.297Z,6.51
2019-01-27T08:08:46.283Z,6.57
2019-01-27T08:09:46.270Z,6.60
2019-01-27T08:10:46.255Z,6.48
2019-01-27T08:11:46.240Z,6.49
2019-01-27T08:12:46.227Z,6.49
2019-01-27T08:13:46.212Z,6.49
2019-01-27T08:14:46.198Z,6.52
2019-01-27T08:15:46.188Z,6.52
2019-01-27T08:16:46.170Z,6.51
2019-01-27T08:17:46.157Z,6.49
2019-01-27T08:18:46.142Z,6.59
2019-01-27T08:19:46.128Z,6.56
2019-01-27T08:20:46.114Z,6.63
2019-01-27T08:21:46.099Z,6.54
2019-01-27T08:22:46.085Z,6.52
2019-01-27T08:23:46.071Z,6.49
2019-01-27T08:24:46.057Z,6.48
2019-01-27T08:25:46.042Z,6.56
2019-01-27T08:26:46.030Z,6.54
2019-01-27T08:27:46.017Z,6.52
2019-01-27T08:28:46.003Z,6.49
2019-01-27T08:29:45.986Z,6.52
2019-01-27T08:30:45.972Z,6.45
2019-01-27T08:31:45.958Z,6.46
2019-01-27T08:32:45.944Z,6.60
2019-01-27T08:33:45.930Z,6.52
2019-01-27T08:34:45.916Z,6.54
2019-01-27T08:35:45.901Z,6.48
2019-01-27T08:36:45.888Z,6.45
2019-01-27T08:37:45.873Z,6.44
2019-01-27T08:38:45.859Z,6.52
2019-01-27T08:39:45.846Z,6.52
2019-01-27T08:40:45.831Z,6.52
2019-01-27T08:41:45.817Z,6.49
2019-01-27T08:42:45.802Z,6.51
2019-01-27T08:43:45.788Z,6.51
2019-01-27T08:44:45.775Z,6.57
2019-01-27T08:45:45.760Z,6.54
2019-01-27T08:46:45.746Z,6.52
2019-01-27T08:47:45.732Z,6.46
2019-01-27T08:48:45.720Z,6.60
2019-01-27T08:49:45.705Z,6.45
2019-01-27T08:50:45.689Z,6.57
2019-01-27T08:51:45.677Z,6.60
2019-01-27T08:52:45.662Z,6.48
2019-01-27T08:53:45.653Z,6.60
2019-01-27T08:54:45.634Z,6.51
2019-01-27T08:55:45.622Z,6.48
2019-01-27T08:56:45.606Z,6.48
2019-01-27T08:57:45.592Z,6.44
2019-01-27T08:58:45.609Z,6.45
2019-01-27T08:59:45.565Z,6.42
2019-01-27T09:00:45.550Z,6.39
2019-01-27T09:01:45.536Z,6.46
2019-01-27T09:02:45.529Z,6.39
2019-01-27T09:03:45.509Z,6.46
2019-01-27T09:04:45.495Z,6.42
2019-01-27T09:05:45.480Z,6.48
2019-01-27T09:06:45.467Z,6.54
2019-01-27T09:07:45.454Z,6.60
2019-01-27T09:08:45.438Z,6.56
2019-01-27T09:09:45.425Z,6.51
2019-01-27T09:10:45.410Z,6.52
2019-01-27T09:11:45.396Z,6.64
2019-01-27T09:12:45.383Z,6.60
2019-01-27T09:13:45.368Z,6.66
2019-01-27T09:14:45.354Z,6.56
2019-01-27T09:15:45.341Z,6.62
2019-01-27T09:16:45.335Z,6.59
2019-01-27T09:17:45.315Z,6.74
2019-01-27T09:18:45.303Z,6.77
2019-01-27T09:19:45.286Z,6.72
2019-01-27T09:20:45.275Z,6.79
2019-01-27T09:21:45.258Z,6.70
2019-01-27T09:22:45.245Z,6.72
2019-01-27T09:23:45.232Z,6.88
2019-01-27T09:24:45.218Z,6.85
2019-01-27T09:25:45.204Z,6.82
2019-01-27T09:26:45.190Z,6.79
2019-01-27T09:27:45.176Z,6.78
2019-01-27T09:28:45.163Z,6.79
2019-01-27T09:29:45.150Z,6.84
2019-01-27T09:30:45.135Z,6.81
2019-01-27T09:31:45.121Z,6.82
2019-01-27T09:32:45.111Z,6.79
2019-01-27T09:33:45.093Z,6.79
2019-01-27T09:34:45.079Z,6.82
2019-01-27T09:35:45.067Z,6.81
2019-01-27T09:36:45.053Z,6.78
2019-01-27T09:37:45.039Z,6.88
2019-01-27T09:38:45.025Z,6.89
2019-01-27T09:39:45.010Z,6.79
2019-01-27T09:40:44.997Z,6.87
2019-01-27T09:41:44.983Z,6.82
2019-01-27T09:42:44.969Z,6.79
2019-01-27T09:43:44.958Z,6.78
2019-01-27T09:44:44.942Z,6.84
2019-01-27T09:45:57.873Z,6.79
2019-01-27T09:46:44.914Z,6.70
2019-01-27T09:47:44.902Z,6.67
2019-01-27T09:48:44.887Z,6.75
2019-01-27T09:49:44.872Z,6.66
2019-01-27T09:50:44.861Z,6.78
2019-01-27T09:51:44.851Z,6.74
2019-01-27T09:52:44.832Z,6.72
2019-01-27T09:53:44.818Z,6.72
2019-01-27T09:54:44.804Z,6.70
2019-01-27T09:55:44.793Z,6.70
2019-01-27T09:56:44.784Z,6.70
2019-01-27T09:57:44.763Z,6.74
2019-01-27T09:58:44.749Z,6.74
2019-01-27T09:59:44.738Z,6.60
2019-01-27T10:00:44.725Z,6.64
2019-01-27T10:01:44.707Z,6.66
2019-01-27T10:02:44.693Z,6.59
2019-01-27T10:03:44.680Z,6.59
2019-01-27T10:04:44.666Z,6.57
2019-01-27T10:05:44.653Z,6.60
2019-01-27T10:06:44.640Z,6.46
2019-01-27T10:07:44.625Z,6.56
2019-01-27T10:08:44.611Z,6.57
2019-01-27T10:09:44.597Z,6.64
2019-01-27T10:10:44.584Z,6.63
2019-01-27T10:11:44.568Z,6.60
2019-01-27T10:12:44.556Z,6.63
2019-01-27T10:13:44.541Z,6.59
2019-01-27T10:14:44.527Z,6.56
2019-01-27T10:15:44.513Z,6.57
2019-01-27T10:16:44.501Z,6.72
2019-01-27T10:17:44.485Z,6.62
2019-01-27T10:18:44.471Z,6.60
2019-01-27T10:19:44.457Z,6.54
2019-01-27T10:20:44.444Z,6.54
2019-01-27T10:21:44.430Z,6.45
2019-01-27T10:22:44.415Z,6.48
2019-01-27T10:23:44.402Z,6.41
2019-01-27T10:24:44.388Z,6.36
2019-01-27T10:25:44.373Z,6.39
2019-01-27T10:26:44.359Z,6.31
2019-01-27T10:27:44.344Z,6.30
2019-01-27T10:28:44.331Z,6.30
2019-01-27T10:29:44.315Z,6.22
2019-01-27T10:30:44.301Z,6.33
2019-01-27T10:31:44.289Z,6.24
2019-01-27T10:32:44.272Z,6.24
2019-01-27T10:33:44.256Z,6.26
2019-01-27T10:34:44.243Z,6.16
2019-01-27T10:35:44.229Z,6.22
2019-01-27T10:36:44.218Z,6.14
2019-01-27T10:37:44.201Z,6.05
2019-01-27T10:38:44.184Z,6.17
2019-01-27T10:39:44.170Z,6.09
2019-01-27T10:40:44.154Z,6.05
2019-01-27T10:41:44.139Z,6.11
2019-01-27T10:42:44.123Z,6.01
2019-01-27T10:43:44.111Z,6.04
2019-01-27T10:44:44.094Z,5.97
2019-01-27T10:45:44.078Z,5.89
2019-01-27T10:46:44.064Z,5.89
2019-01-27T10:47:44.049Z,5.98
2019-01-27T10:48:44.035Z,5.97
2019-01-27T10:49:44.018Z,5.87
2019-01-27T10:50:44.005Z,5.94
2019-01-27T10:51:43.989Z,5.97
2019-01-27T10:52:43.974Z,5.91
2019-01-27T10:53:43.961Z,5.98
2019-01-27T10:54:43.943Z,5.98
2019-01-27T10:55:43.929Z,5.89
2019-01-27T10:56:43.914Z,5.91
2019-01-27T10:57:43.899Z,6.01
2019-01-27T10:58:43.883Z,5.89
2019-01-27T10:59:43.869Z,5.97
2019-01-27T11:00:43.854Z,5.94
2019-01-27T11:01:43.840Z,5.97
2019-01-27T11:02:43.824Z,6.11
2019-01-27T11:03:43.809Z,6.12
2019-01-27T11:04:43.794Z,6.14
2019-01-27T11:05:43.778Z,6.09
2019-01-27T11:06:43.764Z,6.08
2019-01-27T11:07:43.755Z,6.08
2019-01-27T11:08:43.734Z,6.05
2019-01-27T11:09:43.719Z,6.17
2019-01-27T11:10:43.705Z,6.11
2019-01-27T11:11:43.691Z,6.07
2019-01-27T11:12:43.677Z,6.14
2019-01-27T11:13:43.660Z,6.11
2019-01-27T11:14:43.646Z,6.16
2019-01-27T11:15:43.633Z,6.17
2019-01-27T11:16:43.618Z,6.16
2019-01-27T11:17:43.603Z,6.14
2019-01-27T11:18:43.588Z,6.22
2019-01-27T11:19:43.574Z,6.22
2019-01-27T11:20:43.559Z,6.28
2019-01-27T11:21:43.544Z,6.19
2019-01-27T11:22:43.749Z,6.35
2019-01-27T11:23:43.517Z,6.42
2019-01-27T11:24:43.502Z,6.44
2019-01-27T11:25:43.487Z,6.42
2019-01-27T11:26:43.597Z,6.41
2019-01-27T11:27:43.460Z,6.45
2019-01-27T11:28:43.447Z,6.48
2019-01-27T11:29:43.431Z,6.44
2019-01-27T11:30:43.418Z,6.56
2019-01-27T11:31:43.406Z,6.49
2019-01-27T11:32:43.390Z,6.56
2019-01-27T11:33:43.382Z,6.54
2019-01-27T11:34:43.364Z,6.67
2019-01-27T11:35:43.350Z,6.67
2019-01-27T11:36:43.338Z,6.70
2019-01-27T11:37:43.343Z,6.67
2019-01-27T11:38:43.318Z,6.69
2019-01-27T11:39:43.298Z,6.77
2019-01-27T11:40:43.282Z,6.77
2019-01-27T11:41:43.268Z,6.74
2019-01-27T11:42:43.259Z,6.69
2019-01-27T11:43:43.242Z,6.72
2019-01-27T11:44:43.228Z,6.74
2019-01-27T11:45:43.216Z,6.69
2019-01-27T11:46:43.202Z,6.72
2019-01-27T11:47:43.189Z,6.75
2019-01-27T11:48:43.176Z,6.84
2019-01-27T11:49:43.185Z,6.87
2019-01-27T11:50:43.147Z,6.87
2019-01-27T11:51:43.135Z,6.84
2019-01-27T11:52:43.121Z,6.78
2019-01-27T11:53:43.107Z,6.79
2019-01-27T11:54:43.097Z,6.78
2019-01-27T11:55:43.085Z,6.84
2019-01-27T11:56:43.069Z,6.78
2019-01-27T11:57:43.055Z,6.81
2019-01-27T11:58:43.042Z,6.74
2019-01-27T11:59:43.074Z,6.84
2019-01-27T12:00:43.017Z,6.66
2019-01-27T12:01:43.002Z,6.74
2019-01-27T12:02:46.636Z,6.74
2019-01-27T12:03:42.976Z,6.74
2019-01-27T12:04:42.963Z,6.70
2019-01-27T12:05:42.949Z,6.77
2019-01-27T12:06:42.937Z,6.72
2019-01-27T12:07:42.923Z,6.70
2019-01-27T12:08:42.909Z,6.78
2019-01-27T12:09:42.897Z,6.78
2019-01-27T12:10:42.883Z,6.79
2019-01-27T12:11:42.870Z,6.84
2019-01-27T12:12:42.859Z,6.87
2019-01-27T12:13:42.843Z,6.87
2019-01-27T12:14:42.830Z,6.96
2019-01-27T12:15:42.818Z,7.02
2019-01-27T12:16:42.806Z,6.95
2019-01-27T12:17:42.792Z,6.97
2019-01-27T12:18:42.779Z,6.89
2019-01-27T12:19:42.767Z,6.87
2019-01-27T12:20:42.754Z,6.87
2019-01-27T12:21:42.741Z,6.85
2019-01-27T12:22:42.729Z,6.85
2019-01-27T12:23:42.715Z,6.97
2019-01-27T12:24:42.705Z,6.95
2019-01-27T12:25:42.691Z,6.96
2019-01-27T12:26:42.676Z,7.02
2019-01-27T12:27:42.663Z,6.95
2019-01-27T12:28:42.653Z,6.93
2019-01-27T12:29:42.636Z,6.96
2019-01-27T12:30:42.624Z,6.92
2019-01-27T12:31:42.611Z,6.95
2019-01-27T12:32:42.598Z,6.89
2019-01-27T12:33:42.583Z,6.88
2019-01-27T12:34:42.571Z,6.70
2019-01-27T12:35:42.557Z,6.74
2019-01-27T12:36:42.544Z,6.72
2019-01-27T12:37:42.530Z,6.77
2019-01-27T12:38:42.516Z,6.72
2019-01-27T12:39:42.502Z,6.79
2019-01-27T12:40:42.490Z,6.67
2019-01-27T12:41:42.476Z,6.75
2019-01-27T12:42:42.460Z,6.64
2019-01-27T12:43:42.447Z,6.66
2019-01-27T12:44:42.436Z,6.64
2019-01-27T12:45:42.420Z,6.52
2019-01-27T12:46:42.406Z,6.64
2019-01-27T12:47:42.391Z,6.60
2019-01-27T12:48:42.379Z,6.74
2019-01-27T12:49:42.362Z,6.72
2019-01-27T12:50:42.348Z,6.74
2019-01-27T12:51:42.335Z,6.69
2019-01-27T12:52:42.319Z,6.62
2019-01-27T12:53:42.305Z,6.63
2019-01-27T12:54:42.291Z,6.69
2019-01-27T12:55:42.278Z,6.66
2019-01-27T12:56:42.263Z,6.56
2019-01-27T12:57:42.248Z,6.64
2019-01-27T12:58:42.234Z,6.56
2019-01-27T12:59:42.219Z,6.59
2019-01-27T13:00:42.206Z,6.49
2019-01-27T13:01:42.191Z,6.57
2019-01-27T13:02:42.178Z,6.44
2019-01-27T13:03:42.162Z,6.45
2019-01-27T13:04:42.148Z,6.45
2019-01-27T13:05:42.134Z,6.41
2019-01-27T13:06:42.119Z,6.28
2019-01-27T13:07:42.105Z,6.16
2019-01-27T13:08:42.090Z,6.16
2019-01-27T13:09:42.076Z,6.08
2019-01-27T13:10:42.060Z,6.12
2019-01-27T13:11:42.048Z,6.01
2019-01-27T13:12:42.032Z,6.01
2019-01-27T13:13:42.024Z,5.97
2019-01-27T13:14:42.001Z,5.97
2019-01-27T13:15:41.988Z,5.93
2019-01-27T13:16:41.973Z,5.87
2019-01-27T13:17:41.962Z,5.87
2019-01-27T13:18:41.942Z,5.76